Time;durP1;ratioP1;P1;durP2;ratioP2;P2;SDS_P1;SDS_P2;PMS_P1;PMS_P2;Temp;Humidity;BMP_temperature;BMP_pressure;BME280_temperature;BME280_humidity;BME280_pressure;Samples;Min_cycle;Max_cycle;Signal;HPM_P1;HPM_P2
2023/08/02 00:00:27;;;;;;;3.30;1.80;;;20.40;65.10;;;;;;5052096;28;20265;-62
2023/08/02 00:02:53;;;;;;;4.03;2.10;;;20.40;65.20;;;;;;5052356;28;20264;-61
2023/08/02 00:05:19;;;;;;;2.72;1.88;;;20.40;65.20;;;;;;5052778;28;20222;-62
2023/08/02 00:07:44;;;;;;;4.40;2.10;;;20.40;65.20;;;;;;5052843;28;20175;-61
2023/08/02 00:10:13;;;;;;;2.47;1.63;;;20.40;65.20;;;;;;5051919;28;20178;-61
2023/08/02 00:12:38;;;;;;;3.95;1.70;;;20.40;65.30;;;;;;5052926;28;20175;-61
2023/08/02 00:15:04;;;;;;;4.22;1.90;;;20.40;65.20;;;;;;5051846;28;20175;-60
2023/08/02 00:17:30;;;;;;;3.45;1.95;;;20.40;65.30;;;;;;5052925;28;20186;-61
2023/08/02 00:19:55;;;;;;;4.60;2.17;;;20.40;65.30;;;;;;5052321;28;20168;-60
2023/08/02 00:22:21;;;;;;;3.03;2.05;;;20.40;65.20;;;;;;5051800;28;20243;-61
2023/08/02 00:24:46;;;;;;;3.22;1.80;;;20.40;65.30;;;;;;5052754;28;20666;-61
2023/08/02 00:27:15;;;;;;;4.60;2.00;;;20.40;65.20;;;;;;5052576;28;20560;-61
2023/08/02 00:29:40;;;;;;;3.03;1.98;;;20.40;65.40;;;;;;5052109;28;20186;-61
2023/08/02 00:32:06;;;;;;;3.55;2.03;;;20.40;65.20;;;;;;5059555;28;20174;-62
2023/08/02 00:34:32;;;;;;;3.17;1.73;;;20.40;65.30;;;;;;5072550;28;20179;-63
2023/08/02 00:36:57;;;;;;;5.28;2.30;;;20.40;65.30;;;;;;5071881;28;20175;-62
2023/08/02 00:39:23;;;;;;;3.92;1.90;;;20.30;65.10;;;;;;5072455;28;20184;-63
2023/08/02 00:41:48;;;;;;;2.80;1.95;;;20.40;65.20;;;;;;5072361;28;20305;-62
2023/08/02 00:44:14;;;;;;;2.88;2.22;;;20.40;66.00;;;;;;5071597;28;20272;-62
2023/08/02 00:46:39;;;;;;;3.50;2.17;;;20.40;65.10;;;;;;5072335;28;20170;-62
2023/08/02 00:49:05;;;;;;;4.85;2.05;;;20.40;65.00;;;;;;5072101;28;20201;-61
2023/08/02 00:51:32;;;;;;;3.05;1.83;;;20.30;64.90;;;;;;5070339;28;20166;-61
2023/08/02 00:54:02;;;;;;;5.53;2.60;;;20.30;65.00;;;;;;5054159;28;20178;-61
2023/08/02 00:56:27;;;;;;;4.43;2.28;;;20.30;65.00;;;;;;5072394;28;20178;-61
2023/08/02 00:58:56;;;;;;;3.45;2.13;;;20.30;65.00;;;;;;5070517;28;20174;-62
2023/08/02 01:01:22;;;;;;;5.10;2.05;;;20.30;64.90;;;;;;5072337;28;20173;-62
2023/08/02 01:03:47;;;;;;;3.10;2.20;;;20.30;64.80;;;;;;5070976;28;20210;-62
2023/08/02 01:06:23;;;;;;;4.82;2.10;;;20.40;65.70;;;;;;5069981;28;20174;-62
2023/08/02 01:08:51;;;;;;;3.83;2.30;;;20.30;64.80;;;;;;5054422;28;20672;-61
2023/08/02 01:11:27;;;;;;;5.15;2.67;;;20.30;64.80;;;;;;5072092;28;20182;-61
2023/08/02 01:13:53;;;;;;;3.50;2.10;;;20.30;65.50;;;;;;5059773;28;20181;-61
2023/08/02 01:16:19;;;;;;;4.85;2.33;;;20.30;64.70;;;;;;5058159;28;20197;-61
2023/08/02 01:18:44;;;;;;;4.25;2.25;;;20.30;64.50;;;;;;5074289;28;20190;-61
2023/08/02 01:21:10;;;;;;;4.25;2.17;;;20.30;64.50;;;;;;5076095;28;20569;-61
2023/08/02 01:23:35;;;;;;;3.28;2.10;;;20.30;64.50;;;;;;5076180;28;20213;-61
2023/08/02 01:26:01;;;;;;;6.45;2.25;;;20.30;64.50;;;;;;5057143;28;20171;-61
2023/08/02 01:28:27;;;;;;;2.92;2.13;;;20.30;65.40;;;;;;5058224;28;20174;-61
2023/08/02 01:30:52;;;;;;;4.38;2.47;;;20.30;64.40;;;;;;5058127;28;20226;-61
2023/08/02 01:33:18;;;;;;;4.50;2.33;;;20.30;64.40;;;;;;5039419;28;20493;-62
2023/08/02 01:35:44;;;;;;;3.78;2.50;;;20.20;64.40;;;;;;5054956;28;20248;-62
2023/08/02 01:38:09;;;;;;;5.18;2.30;;;20.30;64.50;;;;;;5055555;28;20697;-62
2023/08/02 01:40:35;;;;;;;5.47;2.53;;;20.30;64.50;;;;;;5037386;28;20167;-62
2023/08/02 01:43:00;;;;;;;5.13;2.35;;;20.30;64.40;;;;;;5055218;28;20321;-62
2023/08/02 01:45:26;;;;;;;3.10;1.95;;;20.30;64.30;;;;;;5055718;28;20262;-62
2023/08/02 01:47:52;;;;;;;4.57;2.30;;;20.30;64.40;;;;;;5054952;28;20543;-62
2023/08/02 01:50:20;;;;;;;4.38;2.50;;;20.20;64.40;;;;;;5055490;28;20171;-61
2023/08/02 01:52:48;;;;;;;6.03;2.72;;;20.20;64.40;;;;;;5055659;28;20262;-61
2023/08/02 01:55:17;;;;;;;4.75;2.72;;;20.20;64.40;;;;;;5054660;28;20186;-61
2023/08/02 01:57:44;;;;;;;4.78;2.28;;;20.20;64.50;;;;;;5055617;28;20178;-62
2023/08/02 02:00:10;;;;;;;4.25;2.60;;;20.20;65.50;;;;;;5055029;28;20583;-62
2023/08/02 02:02:35;;;;;;;4.18;2.40;;;20.20;64.70;;;;;;5054514;28;20171;-62
2023/08/02 02:05:01;;;;;;;4.40;2.00;;;20.20;64.70;;;;;;5055246;28;20634;-62
2023/08/02 02:07:27;;;;;;;2.97;1.92;;;20.20;64.70;;;;;;5055450;28;20178;-62
2023/08/02 02:09:52;;;;;;;2.88;2.13;;;20.20;64.90;;;;;;5054647;28;20167;-61
2023/08/02 02:12:18;;;;;;;4.20;2.40;;;20.20;64.80;;;;;;5055048;28;20167;-62
2023/08/02 02:14:44;;;;;;;3.15;2.17;;;20.20;64.80;;;;;;5054603;28;20239;-61
2023/08/02 02:17:09;;;;;;;3.72;2.35;;;20.20;64.80;;;;;;5054938;28;20178;-62
2023/08/02 02:19:35;;;;;;;4.00;2.30;;;20.20;64.80;;;;;;5055037;28;20637;-61
2023/08/02 02:22:00;;;;;;;4.43;2.15;;;20.20;64.80;;;;;;5053513;28;20262;-62
2023/08/02 02:24:26;;;;;;;5.15;2.70;;;20.20;64.80;;;;;;5054471;28;20580;-62
2023/08/02 02:26:51;;;;;;;4.90;2.38;;;20.20;64.80;;;;;;5055018;28;20527;-61
2023/08/02 02:29:17;;;;;;;2.70;2.08;;;20.20;64.80;;;;;;5053985;28;20245;-62
2023/08/02 02:31:42;;;;;;;5.40;2.90;;;20.20;64.90;;;;;;5059067;28;20212;-63
2023/08/02 02:34:08;;;;;;;3.67;2.42;;;20.20;64.80;;;;;;5074465;28;20621;-63
2023/08/02 02:36:34;;;;;;;2.25;1.92;;;20.20;65.70;;;;;;5074247;28;20657;-63
2023/08/02 02:38:59;;;;;;;4.07;2.30;;;20.20;64.90;;;;;;5074550;28;20174;-63
2023/08/02 02:41:25;;;;;;;3.33;2.35;;;20.20;65.00;;;;;;5074531;28;20226;-63
2023/08/02 02:43:50;;;;;;;4.13;2.42;;;20.20;65.00;;;;;;5073865;28;20210;-62
2023/08/02 02:46:16;;;;;;;3.05;1.75;;;20.10;65.00;;;;;;5074301;28;20201;-62
2023/08/02 02:48:41;;;;;;;5.32;2.20;;;20.20;65.10;;;;;;5074668;28;20175;-62
2023/08/02 02:51:07;;;;;;;2.90;1.92;;;20.20;65.10;;;;;;5073715;28;20261;-63
2023/08/02 02:53:32;;;;;;;2.83;2.40;;;20.20;65.20;;;;;;5074556;28;20174;-62
2023/08/02 02:55:58;;;;;;;4.38;2.15;;;20.10;65.20;;;;;;5074087;28;20216;-62
2023/08/02 02:58:23;;;;;;;3.38;2.00;;;20.10;66.20;;;;;;5073739;28;20192;-63
2023/08/02 03:00:49;;;;;;;2.63;2.10;;;20.20;66.20;;;;;;5074213;28;20652;-63
2023/08/02 03:03:15;;;;;;;2.97;2.08;;;20.20;65.40;;;;;;5074371;28;20575;-62
2023/08/02 03:05:40;;;;;;;3.03;2.05;;;20.10;65.40;;;;;;5073569;28;20177;-62
2023/08/02 03:08:06;;;;;;;3.08;2.00;;;20.10;65.40;;;;;;5072846;28;20186;-62
2023/08/02 03:10:31;;;;;;;3.78;2.03;;;20.10;65.40;;;;;;5074296;28;20170;-62
2023/08/02 03:12:57;;;;;;;3.15;1.85;;;20.10;65.40;;;;;;5073105;28;20182;-61
2023/08/02 03:15:22;;;;;;;3.28;2.00;;;20.10;65.50;;;;;;5073931;28;20188;-61
2023/08/02 03:17:48;;;;;;;2.50;2.10;;;20.10;65.50;;;;;;5074103;28;20170;-62
2023/08/02 03:20:13;;;;;;;2.67;2.03;;;20.10;65.60;;;;;;5072831;28;20175;-62
2023/08/02 03:22:42;;;;;;;2.60;1.80;;;20.10;65.40;;;;;;5073879;28;20178;-62
2023/08/02 03:25:08;;;;;;;3.95;1.92;;;20.10;65.60;;;;;;5072929;28;20174;-62
2023/08/02 03:27:33;;;;;;;3.20;2.10;;;20.10;65.70;;;;;;5073721;28;20166;-61
2023/08/02 03:29:59;;;;;;;3.25;2.17;;;20.10;65.60;;;;;;5073379;28;20662;-62
2023/08/02 03:32:24;;;;;;;2.85;2.05;;;20.10;65.60;;;;;;5062972;28;20607;-62
2023/08/02 03:34:50;;;;;;;3.30;2.05;;;20.10;65.70;;;;;;5053733;28;20216;-63
2023/08/02 03:37:18;;;;;;;2.08;1.88;;;20.10;65.70;;;;;;5053440;28;20179;-63
2023/08/02 03:39:44;;;;;;;2.50;2.10;;;20.10;65.70;;;;;;5052932;28;20179;-62
2023/08/02 03:42:09;;;;;;;3.35;2.35;;;20.10;65.70;;;;;;5053081;28;20637;-62
2023/08/02 03:44:35;;;;;;;5.22;2.30;;;20.10;65.80;;;;;;5053229;28;20633;-62
2023/08/02 03:47:00;;;;;;;3.78;2.10;;;20.10;66.70;;;;;;5052573;28;20175;-62
2023/08/02 03:49:26;;;;;;;2.35;1.90;;;20.10;65.80;;;;;;5053365;28;20626;-62
2023/08/02 03:51:51;;;;;;;2.20;2.00;;;20.10;65.80;;;;;;5053423;28;20210;-61
2023/08/02 03:54:17;;;;;;;3.28;1.77;;;20.00;65.80;;;;;;5051354;28;20179;-61
2023/08/02 03:56:43;;;;;;;3.33;2.00;;;20.10;66.60;;;;;;5053325;28;20254;-62
2023/08/02 03:59:08;;;;;;;3.33;2.00;;;20.00;65.70;;;;;;5052837;28;20201;-62
2023/08/02 04:01:34;;;;;;;3.28;1.92;;;20.10;65.90;;;;;;5052617;28;20278;-63
2023/08/02 04:03:59;;;;;;;3.35;1.88;;;20.00;65.80;;;;;;5052902;28;20215;-62
2023/08/02 04:06:25;;;;;;;2.55;1.90;;;20.00;65.80;;;;;;5053043;28;20221;-62
2023/08/02 04:08:50;;;;;;;2.70;2.20;;;20.00;65.80;;;;;;5052389;28;20183;-62
2023/08/02 04:11:16;;;;;;;3.30;1.83;;;20.00;65.80;;;;;;5052739;28;20237;-62
2023/08/02 04:13:41;;;;;;;3.00;2.10;;;20.00;65.80;;;;;;5052938;28;20178;-62
2023/08/02 04:16:07;;;;;;;2.97;2.00;;;20.00;65.80;;;;;;5052120;28;20638;-62
2023/08/02 04:18:32;;;;;;;3.47;2.10;;;20.00;65.90;;;;;;5052940;28;20630;-62
2023/08/02 04:20:59;;;;;;;2.78;1.85;;;20.00;65.90;;;;;;5052644;28;20732;-62
2023/08/02 04:23:26;;;;;;;2.05;1.85;;;20.00;65.90;;;;;;5052021;28;20259;-62
2023/08/02 04:25:51;;;;;;;2.47;1.88;;;20.00;65.80;;;;;;5052909;28;20202;-60
2023/08/02 04:28:17;;;;;;;3.13;2.10;;;20.00;65.80;;;;;;5051703;28;20595;-63
2023/08/02 04:30:42;;;;;;;2.15;1.83;;;20.00;65.80;;;;;;5052728;28;20522;-62
2023/08/02 04:33:08;;;;;;;2.15;1.58;;;20.10;65.90;;;;;;5068608;28;20578;-65
2023/08/02 04:35:34;;;;;;;2.40;1.70;;;20.00;65.80;;;;;;5072199;28;20927;-63
2023/08/02 04:37:59;;;;;;;3.10;1.70;;;20.00;65.80;;;;;;5072269;28;20637;-63
2023/08/02 04:40:25;;;;;;;2.55;1.80;;;20.00;65.70;;;;;;5072316;28;20621;-62
2023/08/02 04:42:50;;;;;;;4.30;2.17;;;20.10;65.80;;;;;;5071379;28;20313;-62
2023/08/02 04:45:19;;;;;;;4.25;2.28;;;20.10;65.80;;;;;;5071884;28;20186;-62
2023/08/02 04:47:44;;;;;;;2.50;2.00;;;20.10;65.80;;;;;;5072337;28;20174;-62
2023/08/02 04:50:10;;;;;;;2.38;2.03;;;20.10;65.80;;;;;;5071423;28;20183;-61
2023/08/02 04:52:35;;;;;;;4.68;2.00;;;20.10;65.80;;;;;;5072576;28;20216;-61
2023/08/02 04:55:01;;;;;;;3.80;2.20;;;20.10;65.80;;;;;;5072100;28;20179;-62
2023/08/02 04:57:26;;;;;;;2.60;2.20;;;20.00;65.80;;;;;;5071549;28;20174;-62
2023/08/02 04:59:53;;;;;;;3.78;2.13;;;20.00;65.80;;;;;;5072535;28;20227;-62
2023/08/02 05:02:20;;;;;;;2.30;2.05;;;20.10;65.80;;;;;;5072028;28;20708;-63
2023/08/02 05:04:51;;;;;;;2.10;1.90;;;20.10;65.80;;;;;;5071492;28;20267;-62
2023/08/02 05:07:16;;;;;;;3.28;2.42;;;20.10;65.80;;;;;;5072053;28;20197;-62
2023/08/02 05:09:43;;;;;;;2.83;2.13;;;20.00;66.60;;;;;;5072281;28;20228;-62
2023/08/02 05:12:08;;;;;;;3.78;2.20;;;20.00;65.80;;;;;;5071126;28;20637;-62
2023/08/02 05:14:34;;;;;;;3.60;1.83;;;20.10;65.80;;;;;;5072427;28;20181;-62
2023/08/02 05:16:59;;;;;;;2.28;1.80;;;20.00;65.80;;;;;;5071861;28;20637;-62
2023/08/02 05:19:25;;;;;;;3.35;1.98;;;20.00;66.60;;;;;;5071322;28;20167;-63
2023/08/02 05:21:51;;;;;;;3.30;2.08;;;20.00;65.80;;;;;;5072109;28;20181;-62
2023/08/02 05:24:16;;;;;;;2.40;1.98;;;20.00;65.80;;;;;;5071845;28;20281;-63
2023/08/02 05:26:42;;;;;;;3.10;2.00;;;20.00;65.80;;;;;;5071385;28;20178;-62
2023/08/02 05:29:07;;;;;;;3.08;2.03;;;20.00;65.80;;;;;;5071757;28;20183;-62
2023/08/02 05:31:33;;;;;;;2.65;2.05;;;20.00;65.70;;;;;;5068193;28;20172;-63
2023/08/02 05:33:58;;;;;;;3.63;2.17;;;20.00;65.70;;;;;;5051948;28;20183;-64
2023/08/02 05:36:24;;;;;;;3.22;2.17;;;20.10;65.80;;;;;;5051993;28;20171;-64
2023/08/02 05:38:49;;;;;;;3.22;1.75;;;20.00;65.70;;;;;;5051274;28;20171;-63
2023/08/02 05:41:15;;;;;;;3.38;2.13;;;20.00;65.70;;;;;;5051312;28;20222;-64
2023/08/02 05:43:44;;;;;;;1.88;1.70;;;20.00;65.70;;;;;;5051746;28;20211;-63
2023/08/02 05:46:11;;;;;;;3.60;2.10;;;20.10;65.80;;;;;;5050998;28;20176;-63
2023/08/02 05:48:36;;;;;;;3.38;2.10;;;20.10;65.80;;;;;;5052158;28;20193;-63
2023/08/02 05:51:02;;;;;;;3.22;2.08;;;20.10;65.80;;;;;;5051793;28;20179;-62
2023/08/02 05:53:27;;;;;;;2.17;1.65;;;20.00;65.80;;;;;;5051072;28;20179;-62
2023/08/02 05:55:55;;;;;;;3.20;2.10;;;20.00;65.80;;;;;;5051670;28;20179;-63
2023/08/02 05:58:20;;;;;;;3.25;2.03;;;20.00;65.80;;;;;;5053513;28;20171;-63
2023/08/02 06:00:46;;;;;;;2.05;1.60;;;20.00;66.70;;;;;;5055236;28;20182;-64
2023/08/02 06:03:11;;;;;;;3.45;2.20;;;20.00;65.90;;;;;;5055137;28;20281;-63
2023/08/02 06:05:37;;;;;;;3.15;2.10;;;20.00;65.90;;;;;;5055698;28;20186;-63
2023/08/02 06:08:02;;;;;;;3.42;2.05;;;20.00;66.80;;;;;;5054392;28;20171;-63
2023/08/02 06:10:28;;;;;;;3.00;1.92;;;20.00;66.00;;;;;;5055142;28;20542;-63
2023/08/02 06:12:54;;;;;;;2.28;2.05;;;20.00;65.90;;;;;;5055211;28;20171;-62
2023/08/02 06:15:19;;;;;;;3.20;2.50;;;20.00;66.00;;;;;;5054100;28;20224;-62
2023/08/02 06:17:45;;;;;;;3.05;2.08;;;20.00;66.10;;;;;;5055266;28;20229;-62
2023/08/02 06:20:10;;;;;;;2.70;1.77;;;20.00;66.10;;;;;;5054742;28;20170;-62
2023/08/02 06:22:36;;;;;;;2.47;1.95;;;20.00;66.00;;;;;;5054367;28;20267;-62
2023/08/02 06:25:02;;;;;;;3.60;2.15;;;20.00;66.20;;;;;;5054603;28;20222;-61
2023/08/02 06:27:27;;;;;;;4.45;2.05;;;20.00;66.20;;;;;;5054972;28;20662;-62
2023/08/02 06:29:53;;;;;;;3.10;2.13;;;20.00;66.20;;;;;;5054285;28;20186;-62
2023/08/02 06:32:18;;;;;;;2.72;1.73;;;20.00;66.20;;;;;;5064010;28;20648;-63
2023/08/02 06:34:44;;;;;;;3.47;2.03;;;20.00;66.20;;;;;;5074794;28;20225;-63
2023/08/02 06:37:09;;;;;;;3.45;2.05;;;20.00;66.30;;;;;;5073930;28;20223;-63
2023/08/02 06:39:35;;;;;;;2.53;2.25;;;20.00;66.40;;;;;;5074669;28;20257;-63
2023/08/02 06:42:00;;;;;;;2.65;2.03;;;20.00;66.50;;;;;;5073560;28;20222;-62
2023/08/02 06:44:26;;;;;;;3.08;2.03;;;20.00;66.40;;;;;;5074533;28;20218;-62
2023/08/02 06:46:52;;;;;;;3.00;2.17;;;19.90;67.20;;;;;;5074490;28;20175;-62
2023/08/02 06:49:17;;;;;;;3.28;2.20;;;20.00;66.50;;;;;;5073500;28;20178;-62
2023/08/02 06:51:46;;;;;;;2.55;1.85;;;20.00;66.50;;;;;;5074482;28;20180;-61
2023/08/02 06:54:12;;;;;;;2.85;2.35;;;20.00;66.40;;;;;;5074106;28;20636;-61
2023/08/02 06:56:37;;;;;;;4.20;2.03;;;20.00;66.40;;;;;;5073417;28;20281;-62
2023/08/02 06:59:03;;;;;;;2.80;2.10;;;20.00;66.40;;;;;;5074266;28;20174;-63
2023/08/02 07:01:28;;;;;;;2.88;1.92;;;20.00;66.40;;;;;;5074554;28;20649;-63
2023/08/02 07:03:54;;;;;;;3.53;2.20;;;20.00;66.50;;;;;;5073670;28;20232;-63
2023/08/02 07:06:20;;;;;;;2.05;1.80;;;20.00;67.30;;;;;;5073945;28;20540;-63
2023/08/02 07:08:46;;;;;;;2.78;2.00;;;20.00;66.50;;;;;;5073540;28;20202;-62
2023/08/02 07:11:11;;;;;;;2.80;1.98;;;20.00;66.70;;;;;;5073008;28;20661;-63
2023/08/02 07:13:37;;;;;;;3.83;1.90;;;20.00;66.60;;;;;;5074243;28;20180;-61
2023/08/02 07:16:04;;;;;;;2.35;2.13;;;20.00;66.50;;;;;;5073707;28;20171;-61
2023/08/02 07:18:29;;;;;;;2.55;2.20;;;20.00;66.50;;;;;;5073318;28;20585;-61
2023/08/02 07:20:55;;;;;;;3.33;2.53;;;20.00;66.50;;;;;;5074199;28;20652;-62
2023/08/02 07:23:21;;;;;;;2.58;2.03;;;19.90;66.50;;;;;;5073637;28;20571;-61
2023/08/02 07:25:47;;;;;;;3.28;2.50;;;20.00;66.80;;;;;;5073032;28;20534;-61
2023/08/02 07:28:12;;;;;;;3.00;2.22;;;20.00;66.70;;;;;;5073564;28;20176;-61
2023/08/02 07:30:38;;;;;;;2.65;2.20;;;20.00;66.80;;;;;;5073672;28;20603;-62
2023/08/02 07:33:03;;;;;;;3.53;2.50;;;19.90;66.70;;;;;;5057330;28;20590;-62
2023/08/02 07:35:29;;;;;;;3.28;1.90;;;20.00;66.80;;;;;;5053810;28;20167;-63
2023/08/02 07:37:55;;;;;;;3.25;2.40;;;20.00;66.80;;;;;;5053442;28;20198;-63
2023/08/02 07:40:21;;;;;;;2.83;2.20;;;20.00;66.80;;;;;;5052757;28;20591;-62
2023/08/02 07:42:46;;;;;;;3.60;2.55;;;20.00;66.90;;;;;;5053254;28;20226;-62
2023/08/02 07:45:12;;;;;;;3.05;2.17;;;20.00;67.00;;;;;;5052483;28;20187;-64
2023/08/02 07:47:38;;;;;;;2.63;2.20;;;20.00;67.00;;;;;;5053490;28;20708;-62
2023/08/02 07:50:04;;;;;;;4.00;2.38;;;20.00;67.00;;;;;;5053037;28;20186;-61
2023/08/02 07:52:30;;;;;;;2.83;2.25;;;20.00;67.00;;;;;;5052414;28;20191;-62
2023/08/02 07:54:56;;;;;;;3.75;2.42;;;20.00;67.80;;;;;;5053170;28;20667;-62
2023/08/02 07:57:26;;;;;;;2.30;1.88;;;20.00;66.90;;;;;;5053329;28;20698;-62
2023/08/02 07:59:52;;;;;;;2.33;1.90;;;20.00;66.90;;;;;;5052416;28;20250;-62
2023/08/02 08:02:18;;;;;;;2.95;2.10;;;20.00;67.10;;;;;;5052671;28;20220;-62
2023/08/02 08:04:44;;;;;;;2.42;2.22;;;20.00;67.10;;;;;;5052911;28;20306;-62
2023/08/02 08:07:10;;;;;;;4.43;1.98;;;20.00;67.40;;;;;;5051709;28;20634;-62
2023/08/02 08:09:35;;;;;;;3.63;2.50;;;20.00;67.00;;;;;;5051456;28;20267;-63
2023/08/02 08:12:07;;;;;;;2.75;2.28;;;20.00;67.00;;;;;;5051766;28;20642;-63
2023/08/02 08:14:33;;;;;;;8.75;2.65;;;20.00;67.00;;;;;;5051969;28;20178;-63
2023/08/02 08:17:00;;;;;;;2.67;2.00;;;20.00;67.30;;;;;;5051212;28;20180;-63
2023/08/02 08:19:26;;;;;;;3.75;2.55;;;20.00;67.00;;;;;;5053048;28;20237;-63
2023/08/02 08:21:51;;;;;;;5.47;2.20;;;20.00;67.00;;;;;;5051163;28;20513;-61
2023/08/02 08:24:17;;;;;;;2.63;1.90;;;20.10;67.00;;;;;;5052464;28;20703;-64
2023/08/02 08:26:43;;;;;;;2.63;2.15;;;20.10;66.90;;;;;;5052733;28;20186;-61
2023/08/02 08:29:08;;;;;;;5.72;2.40;;;20.10;67.30;;;;;;5051498;28;20175;-61
2023/08/02 08:31:34;;;;;;;3.35;2.33;;;20.10;67.30;;;;;;5055782;28;20490;-62
2023/08/02 08:33:59;;;;;;;3.10;2.10;;;20.20;67.20;;;;;;5072318;28;20535;-61
2023/08/02 08:36:29;;;;;;;5.18;2.05;;;20.20;67.20;;;;;;5071924;28;20535;-61
2023/08/02 08:38:55;;;;;;;2.90;1.90;;;20.20;67.20;;;;;;5072623;28;20171;-61
2023/08/02 08:41:21;;;;;;;5.45;2.20;;;20.20;67.20;;;;;;5072070;28;20249;-60
2023/08/02 08:43:47;;;;;;;2.67;1.70;;;20.20;67.30;;;;;;5071912;28;20234;-60
2023/08/02 08:46:13;;;;;;;2.97;2.00;;;20.30;67.30;;;;;;5072250;28;20170;-60
2023/08/02 08:48:38;;;;;;;6.32;2.60;;;20.20;67.20;;;;;;5071489;28;20183;-60
2023/08/02 08:51:04;;;;;;;2.85;2.25;;;20.20;67.30;;;;;;5072030;28;20220;-60
2023/08/02 08:53:34;;;;;;;3.45;2.17;;;20.30;67.50;;;;;;5072201;28;20174;-60
2023/08/02 08:56:00;;;;;;;2.85;2.15;;;20.30;67.30;;;;;;5071118;28;20217;-60
2023/08/02 08:58:26;;;;;;;3.42;1.98;;;20.30;67.40;;;;;;5072309;28;20201;-61
2023/08/02 09:00:53;;;;;;;4.72;1.67;;;20.20;67.30;;;;;;5072291;28;20212;-61
2023/08/02 09:03:19;;;;;;;3.38;1.77;;;20.20;67.40;;;;;;5053333;28;20218;-61
2023/08/02 09:05:44;;;;;;;2.70;1.60;;;20.20;67.20;;;;;;5070795;28;20205;-60
2023/08/02 09:08:10;;;;;;;6.25;2.20;;;20.20;67.20;;;;;;5054061;28;20178;-61
2023/08/02 09:10:35;;;;;;;2.03;1.83;;;20.20;67.30;;;;;;5071389;28;20257;-60
2023/08/02 09:13:01;;;;;;;2.05;1.70;;;20.20;67.30;;;;;;5070580;28;20622;-60
2023/08/02 09:15:27;;;;;;;2.90;1.90;;;20.20;67.40;;;;;;5070820;28;20216;-60
2023/08/02 09:17:53;;;;;;;2.17;1.98;;;20.20;68.20;;;;;;5071340;28;20749;-60
2023/08/02 09:20:21;;;;;;;3.33;1.70;;;20.20;67.30;;;;;;5071793;28;20235;-60
2023/08/02 09:22:46;;;;;;;2.30;1.75;;;20.20;67.40;;;;;;5071242;28;20604;-60
2023/08/02 09:25:24;;;;;;;1.60;1.50;;;20.20;67.40;;;;;;5070825;28;20214;-61
2023/08/02 09:27:50;;;;;;;2.15;1.95;;;20.20;67.30;;;;;;5071819;28;20659;-60
2023/08/02 09:30:44;;;;;;;1.90;1.80;;;20.20;67.20;;;;;;5071494;28;20297;-61
2023/08/02 09:33:10;;;;;;;2.65;1.60;;;20.30;68.10;;;;;;5053118;28;20198;-61
2023/08/02 09:35:49;;;;;;;2.33;1.38;;;20.30;67.30;;;;;;5056006;28;20172;-62
2023/08/02 09:38:16;;;;;;;3.28;1.50;;;20.30;67.20;;;;;;5054756;28;20526;-61
2023/08/02 09:40:42;;;;;;;1.80;1.42;;;20.30;67.30;;;;;;5054284;28;20274;-62
2023/08/02 09:43:11;;;;;;;1.85;1.65;;;20.30;67.10;;;;;;5053672;28;20235;-60
2023/08/02 09:45:37;;;;;;;2.00;1.70;;;20.30;67.10;;;;;;5054940;28;20187;-61
2023/08/02 09:48:03;;;;;;;2.05;1.83;;;20.30;67.20;;;;;;5055225;28;20175;-61
2023/08/02 09:50:29;;;;;;;2.13;1.80;;;20.30;67.20;;;;;;5055420;28;20587;-61
2023/08/02 09:52:54;;;;;;;2.92;1.50;;;20.40;68.10;;;;;;5054786;28;20175;-60
2023/08/02 09:55:20;;;;;;;3.88;1.63;;;20.30;67.20;;;;;;5054877;28;20171;-61
2023/08/02 09:57:47;;;;;;;2.17;1.90;;;20.40;67.20;;;;;;5055428;28;20627;-61
2023/08/02 10:00:13;;;;;;;1.40;1.30;;;20.30;67.20;;;;;;5054297;28;20209;-61
2023/08/02 10:02:39;;;;;;;2.45;2.00;;;20.40;67.20;;;;;;5055375;28;20266;-61
2023/08/02 10:05:07;;;;;;;2.25;1.77;;;20.40;67.10;;;;;;5054885;28;20290;-61
2023/08/02 10:07:38;;;;;;;2.15;1.38;;;20.40;67.20;;;;;;5054474;28;20213;-61
2023/08/02 10:10:11;;;;;;;1.52;1.42;;;20.40;67.20;;;;;;5037864;28;20172;-61
2023/08/02 10:12:36;;;;;;;2.45;2.00;;;20.40;67.20;;;;;;5055384;28;20182;-61
2023/08/02 10:15:02;;;;;;;1.67;1.27;;;20.50;67.10;;;;;;5052586;28;20258;-60
2023/08/02 10:17:29;;;;;;;1.50;1.40;;;20.50;67.00;;;;;;5055121;28;20175;-61
2023/08/02 10:19:54;;;;;;;2.28;1.60;;;20.50;66.90;;;;;;5053121;28;20183;-60
2023/08/02 10:22:20;;;;;;;1.55;1.42;;;20.50;66.90;;;;;;5053198;28;20219;-60
2023/08/02 10:24:46;;;;;;;1.95;1.63;;;20.50;67.00;;;;;;5036784;28;20411;-61
2023/08/02 10:27:11;;;;;;;1.70;1.55;;;20.50;67.00;;;;;;5052814;28;20580;-61
2023/08/02 10:29:37;;;;;;;2.30;1.40;;;20.50;67.10;;;;;;5054905;28;20605;-62
2023/08/02 10:32:17;;;;;;;2.33;1.60;;;20.50;67.20;;;;;;5060354;28;20175;-62
2023/08/02 10:34:47;;;;;;;2.53;2.00;;;20.50;67.30;;;;;;5074078;28;20182;-63
2023/08/02 10:37:13;;;;;;;1.88;1.40;;;20.50;67.60;;;;;;5074268;28;20174;-62
2023/08/02 10:39:45;;;;;;;1.42;1.17;;;20.50;67.70;;;;;;5074355;28;20179;-62
2023/08/02 10:42:14;;;;;;;10.20;4.07;;;20.60;67.60;;;;;;5073495;28;20261;-62
2023/08/02 10:44:55;;;;;;;5.57;2.95;;;20.60;67.60;;;;;;5073209;28;20214;-62
2023/08/02 10:47:27;;;;;;;4.75;2.50;;;20.60;67.70;;;;;;5074141;28;20594;-62
2023/08/02 10:49:53;;;;;;;8.68;2.65;;;20.70;67.50;;;;;;5073749;28;20183;-62
2023/08/02 10:52:28;;;;;;;3.80;2.42;;;20.70;67.50;;;;;;5073998;28;20696;-62
2023/08/02 10:55:16;;;;;;;3.40;2.33;;;20.70;67.40;;;;;;5074134;28;20281;-62
2023/08/02 10:57:54;;;;;;;4.03;2.65;;;20.80;67.90;;;;;;5074275;28;20181;-62
2023/08/02 11:00:23;;;;;;;4.50;2.67;;;20.80;67.30;;;;;;5074013;28;20695;-63
2023/08/02 11:02:49;;;;;;;5.32;2.38;;;20.80;67.20;;;;;;5073559;28;20177;-63
2023/08/02 11:05:36;;;;;;;3.28;2.42;;;20.80;67.30;;;;;;5073759;28;20599;-63
2023/08/02 11:08:02;;;;;;;3.42;2.38;;;20.80;67.30;;;;;;5073715;28;20197;-63
2023/08/02 11:10:28;;;;;;;7.07;4.15;;;20.80;67.30;;;;;;5073131;28;20665;-63
2023/08/02 11:12:54;;;;;;;4.43;3.22;;;20.80;67.30;;;;;;5074136;28;20253;-63
2023/08/02 11:15:19;;;;;;;6.65;3.60;;;20.90;67.20;;;;;;5073831;28;20177;-63
2023/08/02 11:17:46;;;;;;;7.93;4.38;;;21.00;66.90;;;;;;5073167;28;20175;-63
2023/08/02 11:20:13;;;;;;;7.03;3.92;;;21.00;66.90;;;;;;5073110;28;20182;-63
2023/08/02 11:22:39;;;;;;;7.60;4.70;;;21.00;67.10;;;;;;5073776;28;20240;-63
2023/08/02 11:25:06;;;;;;;6.22;4.78;;;20.90;67.30;;;;;;5072595;28;20211;-63
2023/08/02 11:27:33;;;;;;;10.20;5.13;;;20.90;67.40;;;;;;5073808;28;20174;-64
2023/08/02 11:29:59;;;;;;;10.88;5.18;;;20.90;67.50;;;;;;5073421;28;20182;-63
2023/08/02 11:32:26;;;;;;;7.60;5.40;;;20.80;67.60;;;;;;5062667;28;20175;-64
2023/08/02 11:34:51;;;;;;;6.28;5.32;;;20.80;67.70;;;;;;5053671;28;20175;-64
2023/08/02 11:37:18;;;;;;;7.50;5.50;;;20.80;67.80;;;;;;5052620;28;20175;-65
2023/08/02 11:39:54;;;;;;;7.40;5.05;;;20.70;67.70;;;;;;5053482;28;20556;-64
2023/08/02 11:42:20;;;;;;;8.02;5.50;;;20.70;67.80;;;;;;5053048;28;20227;-64
2023/08/02 11:44:45;;;;;;;7.60;5.50;;;20.60;67.90;;;;;;5052654;28;20211;-63
2023/08/02 11:47:11;;;;;;;8.52;6.22;;;20.60;67.90;;;;;;5053200;28;20182;-63
2023/08/02 11:49:50;;;;;;;8.10;5.40;;;20.60;68.00;;;;;;5053187;28;20206;-62
2023/08/02 11:52:29;;;;;;;10.13;6.38;;;20.60;68.90;;;;;;5052108;28;20519;-62
2023/08/02 11:54:54;;;;;;;9.27;6.38;;;20.60;69.00;;;;;;5053578;28;20167;-63
2023/08/02 11:57:21;;;;;;;7.70;5.78;;;20.60;68.20;;;;;;5035210;28;20171;-63
2023/08/02 11:59:47;;;;;;;11.65;6.63;;;20.50;68.10;;;;;;5051305;28;20173;-61
2023/08/02 12:02:28;;;;;;;9.68;6.22;;;20.50;68.10;;;;;;5052819;28;20664;-61
2023/08/02 12:04:54;;;;;;;12.73;7.07;;;20.50;68.00;;;;;;5053129;28;20357;-60
2023/08/02 12:07:30;;;;;;;9.98;6.13;;;20.60;68.20;;;;;;5052028;28;20171;-61
2023/08/02 12:09:56;;;;;;;9.93;6.28;;;20.70;68.50;;;;;;5052839;28;20178;-62
2023/08/02 12:12:22;;;;;;;9.90;6.40;;;20.80;68.80;;;;;;5052968;28;20171;-64
2023/08/02 12:14:47;;;;;;;11.77;6.13;;;20.90;68.70;;;;;;5052092;28;20183;-64
2023/08/02 12:17:17;;;;;;;11.38;6.43;;;20.90;68.70;;;;;;5052683;28;20171;-62
2023/08/02 12:19:43;;;;;;;13.18;6.82;;;21.00;68.60;;;;;;5052141;28;20233;-64
2023/08/02 12:22:08;;;;;;;10.88;6.63;;;21.20;68.70;;;;;;5052447;28;20576;-64
2023/08/02 12:24:34;;;;;;;8.15;5.70;;;21.10;68.60;;;;;;5052754;28;20253;-64
2023/08/02 12:27:15;;;;;;;8.80;6.35;;;21.10;68.70;;;;;;5051811;28;20173;-65
2023/08/02 12:29:42;;;;;;;10.88;5.70;;;21.20;68.80;;;;;;5052601;28;20171;-64
2023/08/02 12:32:08;;;;;;;9.85;6.25;;;21.20;68.80;;;;;;5059985;28;20254;-65
2023/08/02 12:34:36;;;;;;;12.10;6.45;;;21.20;68.90;;;;;;5071915;28;20178;-66
2023/08/02 12:37:02;;;;;;;10.70;6.45;;;21.20;68.80;;;;;;5072155;28;20183;-66
2023/08/02 12:39:28;;;;;;;11.20;6.03;;;21.20;68.80;;;;;;5072228;28;20186;-67
2023/08/02 12:41:53;;;;;;;10.15;5.82;;;21.30;69.50;;;;;;5071558;28;20234;-62